createdAt,value
2023-02-25T00:02:03.157Z,6.00
2023-02-25T00:05:09.603Z,6.00
2023-02-25T00:08:04.907Z,5.80
2023-02-25T00:14:54.067Z,5.60
2023-02-25T00:18:20.060Z,5.70
2023-02-25T00:21:23.914Z,5.60
2023-02-25T00:34:53.972Z,5.60
2023-02-25T00:41:08.352Z,5.70
2023-02-25T00:44:27.243Z,5.70
2023-02-25T00:50:55.625Z,5.80
2023-02-25T00:54:12.516Z,5.80
2023-02-25T00:57:17.552Z,5.70
2023-02-25T01:00:23.517Z,5.60
2023-02-25T01:03:13.220Z,6.00
2023-02-25T01:06:29.040Z,5.70
2023-02-25T01:09:51.474Z,5.80
2023-02-25T01:12:42.199Z,5.90
2023-02-25T01:15:55.692Z,5.90
2023-02-25T01:18:47.888Z,5.90
2023-02-25T01:21:44.288Z,5.90
2023-02-25T01:24:38.021Z,5.90
2023-02-25T01:27:14.945Z,5.90
2023-02-25T01:30:30.188Z,5.90
2023-02-25T01:33:43.189Z,6.20
2023-02-25T01:37:10.210Z,6.10
2023-02-25T01:39:57.355Z,6.10
2023-02-25T01:46:14.328Z,6.20
2023-02-25T01:49:04.659Z,6.20
2023-02-25T01:52:26.588Z,6.20
2023-02-25T01:58:28.059Z,6.10
2023-02-25T02:01:21.313Z,6.10
2023-02-25T02:03:51.526Z,6.00
2023-02-25T02:06:51.252Z,6.10
2023-02-25T02:10:01.067Z,6.10
2023-02-25T02:13:01.663Z,6.10
2023-02-25T02:19:38.986Z,6.10
2023-02-25T02:23:19.270Z,6.30
2023-02-25T02:26:40.642Z,6.00
2023-02-25T02:30:03.314Z,6.10
2023-02-25T02:33:17.611Z,6.20
2023-02-25T02:37:07.972Z,6.30
2023-02-25T02:48:03.169Z,6.30
2023-02-25T02:54:12.780Z,6.20
2023-02-25T02:57:17.742Z,6.20
2023-02-25T03:00:19.691Z,6.20
2023-02-25T03:03:19.501Z,6.10
2023-02-25T03:09:46.139Z,6.00
2023-02-25T03:16:11.228Z,5.90
2023-02-25T03:19:37.234Z,6.00
2023-02-25T03:22:49.086Z,5.90
2023-02-25T03:26:37.941Z,5.90
2023-02-25T03:29:42.970Z,5.80
2023-02-25T03:32:38.252Z,5.90
2023-02-25T03:35:32.645Z,5.80
2023-02-25T03:46:18.172Z,5.70
2023-02-25T03:49:15.242Z,6.00
2023-02-25T03:55:34.784Z,5.80
2023-02-25T03:58:09.162Z,5.70
2023-02-25T04:00:48.567Z,5.70
2023-02-25T04:03:17.386Z,5.90
2023-02-25T04:05:45.894Z,5.60
2023-02-25T04:08:17.460Z,5.50
2023-02-25T04:10:48.233Z,5.50
2023-02-25T04:13:21.009Z,5.50
2023-02-25T04:15:52.516Z,5.50
2023-02-25T04:18:21.183Z,5.50
2023-02-25T04:20:58.037Z,5.50
2023-02-25T04:23:34.508Z,5.70
2023-02-25T04:26:05.498Z,5.70
2023-02-25T04:28:35.972Z,5.40
2023-02-25T04:31:04.863Z,5.40
2023-02-25T04:33:44.301Z,5.40
2023-02-25T04:36:29.007Z,5.40
2023-02-25T04:39:00.419Z,5.20
2023-02-25T04:41:31.305Z,5.30
2023-02-25T04:44:04.215Z,5.10
2023-02-25T04:46:33.885Z,5.00
2023-02-25T04:49:03.781Z,5.00
2023-02-25T04:51:32.678Z,5.10
2023-02-25T04:54:02.849Z,4.90
2023-02-25T04:56:31.339Z,4.80
2023-02-25T04:59:26.924Z,4.70
2023-02-25T05:01:55.669Z,4.80
2023-02-25T05:04:24.544Z,4.70
2023-02-25T05:06:53.003Z,4.80
2023-02-25T05:09:23.857Z,4.80
2023-02-25T05:11:53.468Z,5.00
2023-02-25T05:14:23.138Z,4.80
2023-02-25T05:16:51.583Z,4.80
2023-02-25T05:19:23.392Z,4.70
2023-02-25T05:21:54.040Z,4.70
2023-02-25T05:24:25.159Z,4.60
2023-02-25T05:26:54.390Z,4.60
2023-02-25T05:29:22.772Z,4.60
2023-02-25T05:31:52.103Z,4.70
2023-02-25T05:34:22.857Z,4.70
2023-02-25T05:36:51.114Z,4.50
2023-02-25T05:39:19.423Z,4.40
2023-02-25T05:41:52.758Z,4.40
2023-02-25T05:44:21.247Z,4.60
2023-02-25T05:46:49.887Z,4.40
2023-02-25T05:52:59.162Z,4.60
2023-02-25T05:55:27.955Z,4.60
2023-02-25T05:57:59.193Z,4.30
2023-02-25T06:00:29.281Z,4.30
2023-02-25T06:02:57.934Z,4.50
2023-02-25T06:05:26.434Z,4.30
2023-02-25T06:07:55.202Z,4.20
2023-02-25T06:10:24.468Z,4.20
2023-02-25T06:12:53.284Z,4.30
2023-02-25T06:15:23.221Z,4.30
2023-02-25T06:17:53.967Z,4.20
2023-02-25T06:20:25.353Z,4.40
2023-02-25T06:22:54.493Z,4.40
2023-02-25T06:25:30.119Z,4.30
2023-02-25T06:27:58.776Z,4.30
2023-02-25T06:30:29.845Z,4.30
2023-02-25T06:33:01.506Z,4.50
2023-02-25T06:35:30.598Z,4.30
2023-02-25T06:38:00.851Z,4.40
2023-02-25T06:40:30.280Z,4.30
2023-02-25T06:42:58.805Z,4.30
2023-02-25T06:45:43.853Z,4.40
2023-02-25T06:48:14.303Z,4.40
2023-02-25T06:50:45.514Z,4.30
2023-02-25T06:53:13.600Z,4.60
2023-02-25T06:55:42.129Z,4.40
2023-02-25T06:58:10.301Z,4.60
2023-02-25T07:00:43.155Z,4.80
2023-02-25T07:03:13.213Z,4.80
2023-02-25T07:05:41.694Z,4.70
2023-02-25T07:08:10.282Z,4.60
2023-02-25T07:10:41.776Z,4.60
2023-02-25T07:13:11.109Z,4.60
2023-02-25T07:15:40.984Z,4.60
2023-02-25T07:18:09.779Z,4.70
2023-02-25T07:20:40.559Z,4.80
2023-02-25T07:23:09.283Z,4.60
2023-02-25T07:25:39.719Z,4.90
2023-02-25T07:28:08.110Z,4.70
2023-02-25T07:30:36.909Z,4.70
2023-02-25T07:33:06.773Z,4.70
2023-02-25T07:35:35.682Z,4.70
2023-02-25T07:38:04.381Z,4.80
2023-02-25T07:40:32.805Z,4.80
2023-02-25T07:43:01.341Z,4.80
2023-02-25T07:45:30.293Z,5.00
2023-02-25T07:47:59.417Z,4.80
2023-02-25T07:50:30.105Z,4.80
2023-02-25T07:52:58.897Z,4.80
2023-02-25T07:55:27.979Z,5.10
2023-02-25T07:57:57.069Z,4.90
2023-02-25T08:00:27.967Z,4.90
2023-02-25T08:02:56.475Z,4.80
2023-02-25T08:05:31.773Z,4.80
2023-02-25T08:08:11.693Z,4.80
2023-02-25T08:13:58.923Z,4.70
2023-02-25T08:16:30.045Z,4.70
2023-02-25T08:19:00.366Z,4.60
2023-02-25T08:21:29.183Z,4.80
2023-02-25T08:24:08.328Z,4.90
2023-02-25T08:26:40.894Z,4.70
2023-02-25T08:29:11.600Z,4.80
2023-02-25T08:31:42.575Z,4.90
2023-02-25T08:34:12.781Z,4.80
2023-02-25T08:36:41.795Z,4.80
2023-02-25T08:39:13.248Z,4.80
2023-02-25T08:41:43.567Z,4.80
2023-02-25T08:44:18.511Z,4.70
2023-02-25T08:46:49.649Z,4.70
2023-02-25T08:49:18.618Z,4.60
2023-02-25T08:51:46.885Z,4.80
2023-02-25T08:54:20.748Z,4.80
2023-02-25T08:56:57.913Z,4.70
2023-02-25T08:59:26.828Z,4.80
2023-02-25T09:02:10.537Z,4.90
2023-02-25T09:07:30.944Z,5.40
2023-02-25T09:10:00.860Z,5.20
2023-02-25T09:12:50.323Z,5.30
2023-02-25T09:15:19.285Z,5.20
2023-02-25T09:17:48.343Z,5.10
2023-02-25T09:23:15.833Z,5.30
2023-02-25T09:25:45.866Z,5.30
2023-02-25T09:28:14.506Z,5.30
2023-02-25T09:30:45.803Z,5.50
2023-02-25T09:33:14.650Z,5.20
2023-02-25T09:35:45.380Z,5.10
2023-02-25T09:38:13.805Z,5.00
2023-02-25T09:40:46.643Z,5.30
2023-02-25T09:43:23.319Z,5.00
2023-02-25T09:45:54.125Z,4.90
2023-02-25T09:48:29.306Z,4.80
2023-02-25T09:51:04.756Z,4.80
2023-02-25T09:53:45.454Z,4.80
2023-02-25T09:56:26.282Z,5.00
2023-02-25T09:58:58.689Z,4.90
2023-02-25T10:01:34.343Z,4.90
2023-02-25T10:04:09.425Z,4.90
2023-02-25T10:06:43.670Z,4.90
2023-02-25T10:09:22.980Z,5.10
2023-02-25T10:12:01.974Z,5.00
2023-02-25T10:15:00.880Z,5.20
2023-02-25T10:17:43.561Z,5.00
2023-02-25T10:20:44.402Z,4.90
2023-02-25T10:23:26.132Z,4.90
2023-02-25T10:26:13.391Z,4.80
2023-02-25T10:28:44.953Z,4.80
2023-02-25T10:31:27.493Z,4.70
2023-02-25T10:37:18.690Z,4.70
2023-02-25T10:39:48.834Z,4.70
2023-02-25T10:42:17.747Z,4.70
2023-02-25T10:44:46.674Z,4.60
2023-02-25T10:47:27.469Z,4.70
2023-02-25T10:50:19.710Z,4.60
2023-02-25T10:53:03.359Z,4.60
2023-02-25T10:55:53.352Z,4.60
2023-02-25T10:58:37.147Z,4.40
2023-02-25T11:01:16.977Z,4.50
2023-02-25T11:03:55.803Z,4.70
2023-02-25T11:06:27.605Z,4.50
2023-02-25T11:08:58.699Z,4.60
2023-02-25T11:11:36.893Z,4.60
2023-02-25T11:14:10.856Z,4.70
2023-02-25T11:16:43.989Z,4.70
2023-02-25T11:19:19.622Z,4.80
2023-02-25T11:21:49.296Z,4.80
2023-02-25T11:24:32.252Z,4.90
2023-02-25T11:27:06.184Z,4.90
2023-02-25T11:29:40.337Z,5.20
2023-02-25T11:32:14.657Z,4.90
2023-02-25T11:34:54.005Z,5.20
2023-02-25T11:37:30.608Z,5.00
2023-02-25T11:40:00.001Z,5.20
2023-02-25T11:42:37.569Z,5.00
2023-02-25T11:45:11.331Z,5.00
2023-02-25T11:47:43.414Z,5.00
2023-02-25T11:50:26.939Z,5.10
2023-02-25T11:53:04.535Z,5.10
2023-02-25T11:55:51.394Z,5.30
2023-02-25T11:58:31.998Z,5.20
2023-02-25T12:01:05.450Z,5.10
2023-02-25T12:04:01.016Z,5.10
2023-02-25T12:07:03.063Z,5.10
2023-02-25T12:09:48.163Z,5.00
2023-02-25T12:12:55.838Z,4.90
2023-02-25T12:15:53.590Z,4.90
2023-02-25T12:18:46.270Z,4.80
2023-02-25T12:21:54.051Z,4.70
2023-02-25T12:24:41.070Z,4.50
2023-02-25T12:27:54.728Z,4.50
2023-02-25T12:31:02.212Z,4.50
2023-02-25T12:34:12.970Z,4.60
2023-02-25T12:36:55.087Z,4.50
2023-02-25T12:39:56.788Z,4.60
2023-02-25T12:43:08.389Z,4.60
2023-02-25T12:50:03.187Z,4.70
2023-02-25T12:52:42.960Z,5.00
2023-02-25T13:03:02.563Z,4.80
2023-02-25T13:05:52.485Z,4.80
2023-02-25T13:08:39.550Z,4.90
2023-02-25T13:11:22.391Z,5.00
2023-02-25T13:14:27.171Z,5.30
2023-02-25T13:17:16.921Z,5.10
2023-02-25T13:20:27.767Z,5.20
2023-02-25T13:23:12.441Z,4.90
2023-02-25T13:25:54.566Z,4.80
2023-02-25T13:28:37.174Z,4.70
2023-02-25T13:31:10.847Z,4.70
2023-02-25T13:33:56.651Z,4.70
2023-02-25T13:36:52.381Z,4.70
2023-02-25T13:39:56.457Z,4.50
2023-02-25T13:42:52.337Z,4.30
2023-02-25T13:45:50.878Z,4.20
2023-02-25T13:48:49.927Z,4.20
2023-02-25T13:51:46.597Z,4.30
2023-02-25T13:54:44.372Z,4.30
2023-02-25T13:57:25.705Z,4.40
2023-02-25T14:00:15.593Z,4.70
2023-02-25T14:03:07.303Z,4.70
2023-02-25T14:05:46.233Z,4.80
2023-02-25T14:08:40.208Z,5.00
2023-02-25T14:11:27.123Z,5.10
2023-02-25T14:14:20.826Z,4.90
2023-02-25T14:17:05.954Z,5.10
2023-02-25T14:19:43.771Z,5.00
2023-02-25T14:22:29.736Z,4.90
2023-02-25T14:25:06.401Z,4.90
2023-02-25T14:28:06.063Z,4.90
2023-02-25T14:30:45.155Z,4.90
2023-02-25T14:33:43.644Z,4.60
2023-02-25T14:36:37.027Z,4.20
2023-02-25T14:39:50.590Z,3.80
2023-02-25T14:42:56.540Z,3.60
2023-02-25T14:45:30.144Z,3.50
2023-02-25T14:48:42.023Z,3.50
2023-02-25T14:51:33.936Z,3.50
2023-02-25T14:54:30.567Z,3.50
2023-02-25T14:57:34.477Z,3.50
2023-02-25T15:01:02.499Z,3.50
2023-02-25T15:04:15.737Z,3.50
2023-02-25T15:07:18.568Z,3.50
2023-02-25T15:15:57.782Z,3.60
2023-02-25T15:18:32.310Z,3.80
2023-02-25T15:21:55.416Z,3.60
2023-02-25T15:24:52.415Z,3.90
2023-02-25T15:27:56.204Z,3.90
2023-02-25T15:35:28.194Z,4.20
2023-02-25T15:45:46.818Z,3.80
2023-02-25T15:52:29.474Z,3.70
2023-02-25T15:55:32.807Z,3.60
2023-02-25T15:58:55.266Z,3.60
2023-02-25T16:10:24.731Z,3.60
2023-02-25T16:13:01.535Z,3.50
2023-02-25T16:19:02.966Z,3.50
2023-02-25T16:21:59.514Z,3.50
2023-02-25T16:24:34.297Z,3.50
2023-02-25T16:27:16.636Z,3.40
2023-02-25T16:31:02.805Z,3.50
2023-02-25T16:34:14.833Z,3.50
2023-02-25T16:37:43.670Z,3.40
2023-02-25T16:40:38.220Z,3.10
2023-02-25T16:43:37.666Z,3.20
2023-02-25T16:49:45.074Z,3.00
2023-02-25T16:52:21.407Z,3.00
2023-02-25T16:55:17.202Z,3.00
2023-02-25T16:58:02.653Z,2.80
2023-02-25T17:00:55.296Z,2.90
2023-02-25T17:03:28.707Z,2.90
2023-02-25T17:06:06.237Z,2.90
2023-02-25T17:09:40.128Z,2.90
2023-02-25T17:12:39.205Z,2.70
2023-02-25T17:15:25.028Z,3.00
2023-02-25T17:18:02.779Z,2.90
2023-02-25T17:20:31.256Z,3.00
2023-02-25T17:23:05.739Z,2.90
2023-02-25T17:25:39.056Z,2.90
2023-02-25T17:28:08.894Z,2.90
2023-02-25T17:30:41.719Z,2.80
2023-02-25T17:33:26.661Z,2.80
2023-02-25T17:36:00.016Z,2.80
2023-02-25T17:38:29.943Z,2.80
2023-02-25T17:40:59.370Z,2.80
2023-02-25T17:43:35.297Z,2.90
2023-02-25T17:46:14.972Z,2.90
2023-02-25T17:48:51.112Z,2.90
2023-02-25T17:51:20.159Z,2.90
2023-02-25T17:53:50.012Z,2.90
2023-02-25T17:56:24.922Z,2.80
2023-02-25T17:58:54.062Z,2.80
2023-02-25T18:01:25.722Z,2.80
2023-02-25T18:03:55.605Z,2.80
2023-02-25T18:06:40.954Z,2.80
2023-02-25T18:09:38.164Z,3.00
2023-02-25T18:12:08.403Z,3.00
2023-02-25T18:14:38.877Z,2.70
2023-02-25T18:17:23.391Z,2.60
2023-02-25T18:19:55.472Z,2.60
2023-02-25T18:22:32.006Z,3.00
2023-02-25T18:25:02.702Z,2.70
2023-02-25T18:27:32.431Z,2.90
2023-02-25T18:30:23.396Z,3.10
2023-02-25T18:32:54.044Z,2.80
2023-02-25T18:35:35.839Z,2.80
2023-02-25T18:38:05.068Z,3.10
2023-02-25T18:40:47.472Z,2.90
2023-02-25T18:43:18.021Z,2.90
2023-02-25T18:45:55.530Z,3.10
2023-02-25T18:48:23.924Z,3.10
2023-02-25T18:50:53.712Z,3.10
2023-02-25T18:53:23.877Z,3.00
2023-02-25T18:55:52.820Z,3.00
2023-02-25T18:58:22.308Z,3.00
2023-02-25T19:00:53.066Z,3.10
2023-02-25T19:03:27.679Z,3.10
2023-02-25T19:05:57.356Z,2.90
2023-02-25T19:08:25.837Z,2.90
2023-02-25T19:10:55.378Z,2.80
2023-02-25T19:13:31.745Z,3.00
2023-02-25T19:16:00.279Z,2.70
2023-02-25T19:18:29.488Z,2.70
2023-02-25T19:20:59.207Z,2.70
2023-02-25T19:23:27.667Z,2.70
2023-02-25T19:25:59.262Z,2.60
2023-02-25T19:28:27.921Z,2.70
2023-02-25T19:30:57.032Z,2.70
2023-02-25T19:33:25.329Z,2.70
2023-02-25T19:35:53.712Z,2.70
2023-02-25T19:38:23.696Z,2.70
2023-02-25T19:40:51.979Z,2.60
2023-02-25T19:43:20.503Z,2.60
2023-02-25T19:45:50.405Z,2.70
2023-02-25T19:48:19.100Z,2.70
2023-02-25T19:50:47.324Z,2.60
2023-02-25T19:53:16.924Z,2.50
2023-02-25T19:55:47.150Z,2.50
2023-02-25T19:58:15.735Z,2.60
2023-02-25T20:00:46.399Z,2.70
2023-02-25T20:03:15.960Z,2.50
2023-02-25T20:05:50.921Z,2.50
2023-02-25T20:08:19.341Z,2.50
2023-02-25T20:10:49.660Z,2.50
2023-02-25T20:13:18.036Z,2.40
2023-02-25T20:15:49.325Z,2.60
2023-02-25T20:18:17.557Z,2.60
2023-02-25T20:20:46.100Z,2.50
2023-02-25T20:23:14.403Z,2.70
2023-02-25T20:25:43.052Z,2.40
2023-02-25T20:28:13.069Z,2.40
2023-02-25T20:30:42.824Z,2.40
2023-02-25T20:33:11.287Z,2.40
2023-02-25T20:35:41.132Z,2.60
2023-02-25T20:38:19.355Z,2.40
2023-02-25T20:40:48.108Z,2.50
2023-02-25T20:43:18.545Z,2.40
2023-02-25T20:45:47.527Z,2.30
2023-02-25T20:49:01.843Z,2.30
2023-02-25T20:57:13.290Z,2.40
2023-02-25T21:32:31.090Z,2.30
2023-02-25T21:35:01.126Z,2.30
2023-02-25T21:37:35.573Z,2.30
2023-02-25T22:54:36.286Z,2.10
2023-02-25T22:57:08.981Z,2.10
2023-02-25T23:00:34.345Z,2.10
2023-02-25T23:04:05.724Z,2.10
2023-02-25T23:12:39.297Z,2.20
2023-02-25T23:15:48.184Z,2.20
2023-02-25T23:18:39.067Z,2.20
2023-02-25T23:27:11.524Z,2.20
2023-02-25T23:29:45.555Z,2.30
2023-02-25T23:32:17.238Z,2.10
2023-02-25T23:34:52.600Z,2.10
2023-02-25T23:37:52.976Z,2.20
2023-02-25T23:40:42.113Z,2.30
2023-02-25T23:43:56.723Z,2.20
2023-02-25T23:54:11.477Z,2.30
2023-02-25T23:56:55.707Z,2.20
2023-02-25T23:59:27.145Z,2.10
